sensor_id;sensor_type;location;lat;lon;timestamp;temperature;humidity
22271;DHT22;11304;53.520;10.104;2023-03-01T05:29:47;0.30;99.90
22271;DHT22;11304;53.520;10.104;2023-03-01T05:32:14;0.10;99.90
22271;DHT22;11304;53.520;10.104;2023-03-01T05:34:41;0.10;99.90
22271;DHT22;11304;53.520;10.104;2023-03-01T05:37:07;0.00;99.90
22271;DHT22;11304;53.520;10.104;2023-03-01T05:39:33;0.10;99.90
22271;DHT22;11304;53.520;10.104;2023-03-01T05:42:00;0.10;99.90
22271;DHT22;11304;53.520;10.104;2023-03-01T05:44:28;0.10;99.90
22271;DHT22;11304;53.520;10.104;2023-03-01T05:46:54;0.20;99.90
22271;DHT22;11304;53.520;10.104;2023-03-01T05:49:20;0.20;99.90
22271;DHT22;11304;53.520;10.104;2023-03-01T05:51:50;0.20;99.90
22271;DHT22;11304;53.520;10.104;2023-03-01T05:54:16;0.30;99.90
22271;DHT22;11304;53.520;10.104;2023-03-01T05:56:42;0.20;99.90
22271;DHT22;11304;53.520;10.104;2023-03-01T05:59:08;0.30;99.90
22271;DHT22;11304;53.520;10.104;2023-03-01T06:01:34;0.30;99.90
22271;DHT22;11304;53.520;10.104;2023-03-01T06:04:01;0.30;99.90
22271;DHT22;11304;53.520;10.104;2023-03-01T06:06:26;0.30;99.90
22271;DHT22;11304;53.520;10.104;2023-03-01T06:08:53;0.30;99.90
22271;DHT22;11304;53.520;10.104;2023-03-01T06:11:19;0.30;99.90
22271;DHT22;11304;53.520;10.104;2023-03-01T06:13:46;0.30;99.90
22271;DHT22;11304;53.520;10.104;2023-03-01T06:16:12;0.40;99.90
22271;DHT22;11304;53.520;10.104;2023-03-01T06:18:38;0.40;99.90
22271;DHT22;11304;53.520;10.104;2023-03-01T06:21:05;0.40;99.90
22271;DHT22;11304;53.520;10.104;2023-03-01T06:23:31;0.50;99.90
22271;DHT22;11304;53.520;10.104;2023-03-01T06:25:57;0.50;99.90
22271;DHT22;11304;53.520;10.104;2023-03-01T06:28:23;0.50;99.90
22271;DHT22;11304;53.520;10.104;2023-03-01T06:30:50;0.50;99.90
22271;DHT22;11304;53.520;10.104;2023-03-01T06:33:17;0.60;99.90
22271;DHT22;11304;53.520;10.104;2023-03-01T06:35:46;0.60;99.90
22271;DHT22;11304;53.520;10.104;2023-03-01T06:38:11;0.60;99.90
22271;DHT22;11304;53.520;10.104;2023-03-01T06:40:40;0.80;99.90
22271;DHT22;11304;53.520;10.104;2023-03-01T06:43:06;0.80;99.90
22271;DHT22;11304;53.520;10.104;2023-03-01T06:45:33;0.90;99.90
22271;DHT22;11304;53.520;10.104;2023-03-01T06:48:06;0.80;99.90
22271;DHT22;11304;53.520;10.104;2023-03-01T06:50:32;0.90;99.90
22271;DHT22;11304;53.520;10.104;2023-03-01T06:52:58;0.90;99.90
22271;DHT22;11304;53.520;10.104;2023-03-01T06:55:24;0.80;99.90
22271;DHT22;11304;53.520;10.104;2023-03-01T06:57:57;0.80;99.90
22271;DHT22;11304;53.520;10.104;2023-03-01T07:00:23;0.80;99.90
22271;DHT22;11304;53.520;10.104;2023-03-01T07:02:49;0.90;99.90
22271;DHT22;11304;53.520;10.104;2023-03-01T07:05:15;1.00;99.90
22271;DHT22;11304;53.520;10.104;2023-03-01T07:07:40;1.10;99.90
22271;DHT22;11304;53.520;10.104;2023-03-01T07:10:07;1.00;99.90
22271;DHT22;11304;53.520;10.104;2023-03-01T07:12:33;1.10;99.90
22271;DHT22;11304;53.520;10.104;2023-03-01T07:14:58;1.10;99.90
22271;DHT22;11304;53.520;10.104;2023-03-01T07:17:24;1.20;99.90
22271;DHT22;11304;53.520;10.104;2023-03-01T07:19:50;1.20;99.90
22271;DHT22;11304;53.520;10.104;2023-03-01T07:22:15;1.30;99.90
22271;DHT22;11304;53.520;10.104;2023-03-01T07:24:42;1.40;99.90
22271;DHT22;11304;53.520;10.104;2023-03-01T07:27:08;1.40;99.90
22271;DHT22;11304;53.520;10.104;2023-03-01T07:29:33;1.50;99.90
22271;DHT22;11304;53.520;10.104;2023-03-01T07:32:02;1.60;99.90
22271;DHT22;11304;53.520;10.104;2023-03-01T07:34:28;1.60;99.90
22271;DHT22;11304;53.520;10.104;2023-03-01T07:36:53;1.70;99.90
22271;DHT22;11304;53.520;10.104;2023-03-01T07:39:19;1.80;99.90
22271;DHT22;11304;53.520;10.104;2023-03-01T07:41:45;1.80;99.90
22271;DHT22;11304;53.520;10.104;2023-03-01T07:44:11;1.90;99.90
22271;DHT22;11304;53.520;10.104;2023-03-01T07:46:36;2.00;99.90
22271;DHT22;11304;53.520;10.104;2023-03-01T07:49:02;2.10;99.90
22271;DHT22;11304;53.520;10.104;2023-03-01T07:51:28;2.10;99.90
22271;DHT22;11304;53.520;10.104;2023-03-01T07:53:54;2.20;99.90
22271;DHT22;11304;53.520;10.104;2023-03-01T07:56:19;2.20;99.90
22271;DHT22;11304;53.520;10.104;2023-03-01T07:58:46;2.30;99.90
22271;DHT22;11304;53.520;10.104;2023-03-01T08:01:15;2.30;99.90
22271;DHT22;11304;53.520;10.104;2023-03-01T08:03:41;2.40;99.90
22271;DHT22;11304;53.520;10.104;2023-03-01T08:06:09;2.50;99.90
22271;DHT22;11304;53.520;10.104;2023-03-01T08:08:35;2.70;99.90
22271;DHT22;11304;53.520;10.104;2023-03-01T08:11:02;2.80;99.90
22271;DHT22;11304;53.520;10.104;2023-03-01T08:13:29;2.90;99.90
22271;DHT22;11304;53.520;10.104;2023-03-01T08:16:01;3.00;99.90
22271;DHT22;11304;53.520;10.104;2023-03-01T08:18:27;3.10;99.90
22271;DHT22;11304;53.520;10.104;2023-03-01T08:20:53;3.20;99.90
22271;DHT22;11304;53.520;10.104;2023-03-01T08:23:18;3.30;99.90
22271;DHT22;11304;53.520;10.104;2023-03-01T08:25:44;3.40;99.90
22271;DHT22;11304;53.520;10.104;2023-03-01T08:28:10;3.40;99.90
22271;DHT22;11304;53.520;10.104;2023-03-01T08:30:35;3.60;99.90
22271;DHT22;11304;53.520;10.104;2023-03-01T08:33:01;3.80;99.90
22271;DHT22;11304;53.520;10.104;2023-03-01T08:35:27;3.90;99.90
22271;DHT22;11304;53.520;10.104;2023-03-01T08:37:52;3.90;99.90
22271;DHT22;11304;53.520;10.104;2023-03-01T08:40:18;4.00;99.90
22271;DHT22;11304;53.520;10.104;2023-03-01T08:42:44;4.10;99.90
22271;DHT22;11304;53.520;10.104;2023-03-01T08:45:10;4.30;99.90
22271;DHT22;11304;53.520;10.104;2023-03-01T08:47:36;4.40;99.90
22271;DHT22;11304;53.520;10.104;2023-03-01T08:52:28;4.40;99.90
22271;DHT22;11304;53.520;10.104;2023-03-01T08:54:55;4.40;99.90
22271;DHT22;11304;53.520;10.104;2023-03-01T08:57:22;4.40;99.90
22271;DHT22;11304;53.520;10.104;2023-03-01T08:59:47;4.40;99.90
22271;DHT22;11304;53.520;10.104;2023-03-01T09:02:16;4.40;99.90
22271;DHT22;11304;53.520;10.104;2023-03-01T09:04:42;4.50;99.90
22271;DHT22;11304;53.520;10.104;2023-03-01T09:07:08;4.70;99.90
22271;DHT22;11304;53.520;10.104;2023-03-01T09:09:34;4.90;99.90
22271;DHT22;11304;53.520;10.104;2023-03-01T09:12:01;5.10;99.90
22271;DHT22;11304;53.520;10.104;2023-03-01T09:14:27;5.20;99.90
22271;DHT22;11304;53.520;10.104;2023-03-01T09:16:52;5.30;99.90
22271;DHT22;11304;53.520;10.104;2023-03-01T09:19:18;5.30;99.90
22271;DHT22;11304;53.520;10.104;2023-03-01T09:21:44;5.40;99.90
22271;DHT22;11304;53.520;10.104;2023-03-01T09:24:20;5.50;99.90
22271;DHT22;11304;53.520;10.104;2023-03-01T09:26:47;5.50;99.90
22271;DHT22;11304;53.520;10.104;2023-03-01T09:29:13;5.50;99.90
22271;DHT22;11304;53.520;10.104;2023-03-01T09:31:39;5.60;99.90
22271;DHT22;11304;53.520;10.104;2023-03-01T09:34:06;5.90;99.90
22271;DHT22;11304;53.520;10.104;2023-03-01T09:36:32;6.10;99.90
22271;DHT22;11304;53.520;10.104;2023-03-01T09:38:58;6.20;99.90
22271;DHT22;11304;53.520;10.104;2023-03-01T09:44:13;6.10;99.90
22271;DHT22;11304;53.520;10.104;2023-03-01T09:46:43;6.30;99.90
22271;DHT22;11304;53.520;10.104;2023-03-01T09:49:22;6.40;99.90
22271;DHT22;11304;53.520;10.104;2023-03-01T09:52:00;6.50;99.90
22271;DHT22;11304;53.520;10.104;2023-03-01T09:54:26;6.70;99.90
22271;DHT22;11304;53.520;10.104;2023-03-01T09:57:17;7.00;99.90
22271;DHT22;11304;53.520;10.104;2023-03-01T09:59:59;7.30;99.90
22271;DHT22;11304;53.520;10.104;2023-03-01T10:02:47;7.40;99.90
22271;DHT22;11304;53.520;10.104;2023-03-01T10:10:38;7.50;99.90
22271;DHT22;11304;53.520;10.104;2023-03-01T10:13:19;7.50;99.90
22271;DHT22;11304;53.520;10.104;2023-03-01T10:15:50;7.50;99.90
22271;DHT22;11304;53.520;10.104;2023-03-01T10:18:23;7.50;99.90
22271;DHT22;11304;53.520;10.104;2023-03-01T10:21:01;7.60;99.90
22271;DHT22;11304;53.520;10.104;2023-03-01T10:23:30;7.70;99.90
22271;DHT22;11304;53.520;10.104;2023-03-01T10:31:13;8.00;99.90
22271;DHT22;11304;53.520;10.104;2023-03-01T10:33:41;7.90;99.90
22271;DHT22;11304;53.520;10.104;2023-03-01T10:36:07;8.20;99.90
22271;DHT22;11304;53.520;10.104;2023-03-01T10:38:56;8.10;99.90
22271;DHT22;11304;53.520;10.104;2023-03-01T10:41:24;8.10;99.90
22271;DHT22;11304;53.520;10.104;2023-03-01T10:43:56;7.90;99.90
22271;DHT22;11304;53.520;10.104;2023-03-01T10:46:31;7.80;99.90
22271;DHT22;11304;53.520;10.104;2023-03-01T10:49:20;7.80;99.90
22271;DHT22;11304;53.520;10.104;2023-03-01T10:51:48;7.70;99.90
22271;DHT22;11304;53.520;10.104;2023-03-01T10:54:16;7.70;99.90
22271;DHT22;11304;53.520;10.104;2023-03-01T10:56:58;7.80;99.90
22271;DHT22;11304;53.520;10.104;2023-03-01T10:59:33;7.80;99.90
22271;DHT22;11304;53.520;10.104;2023-03-01T11:02:28;7.50;99.90
22271;DHT22;11304;53.520;10.104;2023-03-01T11:07:22;7.30;99.90
22271;DHT22;11304;53.520;10.104;2023-03-01T11:09:48;7.40;99.90
22271;DHT22;11304;53.520;10.104;2023-03-01T11:12:15;7.40;99.90
22271;DHT22;11304;53.520;10.104;2023-03-01T11:14:53;7.40;99.90
22271;DHT22;11304;53.520;10.104;2023-03-01T11:17:30;7.70;99.90
22271;DHT22;11304;53.520;10.104;2023-03-01T11:22:33;7.90;99.90
22271;DHT22;11304;53.520;10.104;2023-03-01T11:25:00;8.10;99.90
22271;DHT22;11304;53.520;10.104;2023-03-01T11:27:31;8.40;99.90
22271;DHT22;11304;53.520;10.104;2023-03-01T11:35:41;9.00;99.90
